sensor_id;sensor_type;location;lat;lon;timestamp;temperature;humidity
68648;SHT31;55632;51.962;16.116;2022-12-07T00:02:23;3.02;91.91
68648;SHT31;55632;51.962;16.116;2022-12-07T00:07:24;3.03;92.04
68648;SHT31;55632;51.962;16.116;2022-12-07T00:12:25;3.06;92.07
68648;SHT31;55632;51.962;16.116;2022-12-07T00:17:25;3.06;92.08
68648;SHT31;55632;51.962;16.116;2022-12-07T00:22:26;3.09;92.10
68648;SHT31;55632;51.962;16.116;2022-12-07T00:27:26;3.09;92.13
68648;SHT31;55632;51.962;16.116;2022-12-07T00:32:27;3.10;92.12
68648;SHT31;55632;51.962;16.116;2022-12-07T00:37:28;3.10;92.12
68648;SHT31;55632;51.962;16.116;2022-12-07T00:42:28;3.09;92.10
68648;SHT31;55632;51.962;16.116;2022-12-07T00:47:29;3.08;92.19
68648;SHT31;55632;51.962;16.116;2022-12-07T00:52:30;3.10;92.23
68648;SHT31;55632;51.962;16.116;2022-12-07T00:57:30;3.09;92.08
68648;SHT31;55632;51.962;16.116;2022-12-07T01:02:31;3.09;92.17
68648;SHT31;55632;51.962;16.116;2022-12-07T01:07:32;3.10;92.28
68648;SHT31;55632;51.962;16.116;2022-12-07T01:12:36;3.09;92.30
68648;SHT31;55632;51.962;16.116;2022-12-07T01:17:36;3.15;92.30
68648;SHT31;55632;51.962;16.116;2022-12-07T01:22:37;3.13;92.24
68648;SHT31;55632;51.962;16.116;2022-12-07T01:27:38;3.13;92.29
68648;SHT31;55632;51.962;16.116;2022-12-07T01:32:39;3.13;92.09
68648;SHT31;55632;51.962;16.116;2022-12-07T01:37:39;3.12;92.13
68648;SHT31;55632;51.962;16.116;2022-12-07T01:42:40;3.09;92.14
68648;SHT31;55632;51.962;16.116;2022-12-07T01:47:41;3.13;92.19
68648;SHT31;55632;51.962;16.116;2022-12-07T01:52:43;3.09;92.11
68648;SHT31;55632;51.962;16.116;2022-12-07T01:57:49;3.08;92.15
68648;SHT31;55632;51.962;16.116;2022-12-07T02:03:01;3.06;92.13
68648;SHT31;55632;51.962;16.116;2022-12-07T02:08:04;3.06;92.15
68648;SHT31;55632;51.962;16.116;2022-12-07T02:13:10;3.03;92.20
68648;SHT31;55632;51.962;16.116;2022-12-07T02:28:32;3.09;92.31
68648;SHT31;55632;51.962;16.116;2022-12-07T02:33:36;3.12;92.33
68648;SHT31;55632;51.962;16.116;2022-12-07T02:38:38;3.12;92.34
68648;SHT31;55632;51.962;16.116;2022-12-07T02:43:45;3.12;92.32
68648;SHT31;55632;51.962;16.116;2022-12-07T02:48:46;3.13;92.30
68648;SHT31;55632;51.962;16.116;2022-12-07T02:53:48;3.16;92.28
68648;SHT31;55632;51.962;16.116;2022-12-07T03:09:43;3.12;92.27
68648;SHT31;55632;51.962;16.116;2022-12-07T03:14:47;3.16;92.30
68648;SHT31;55632;51.962;16.116;2022-12-07T03:19:50;3.15;92.25
68648;SHT31;55632;51.962;16.116;2022-12-07T03:24:55;3.12;92.19
68648;SHT31;55632;51.962;16.116;2022-12-07T03:29:59;3.12;92.16
68648;SHT31;55632;51.962;16.116;2022-12-07T03:35:03;3.12;92.30
68648;SHT31;55632;51.962;16.116;2022-12-07T03:40:17;3.12;92.31
68648;SHT31;55632;51.962;16.116;2022-12-07T03:45:21;3.06;92.31
68648;SHT31;55632;51.962;16.116;2022-12-07T03:50:31;3.06;92.32
68648;SHT31;55632;51.962;16.116;2022-12-07T03:55:34;3.09;92.40
68648;SHT31;55632;51.962;16.116;2022-12-07T04:00:35;3.09;92.45
68648;SHT31;55632;51.962;16.116;2022-12-07T04:05:36;3.08;92.44
68648;SHT31;55632;51.962;16.116;2022-12-07T04:10:36;3.08;92.49
68648;SHT31;55632;51.962;16.116;2022-12-07T04:15:37;3.06;92.55
68648;SHT31;55632;51.962;16.116;2022-12-07T04:20:38;3.10;92.58
68648;SHT31;55632;51.962;16.116;2022-12-07T04:25:38;3.12;92.63
68648;SHT31;55632;51.962;16.116;2022-12-07T04:30:39;3.12;92.73
68648;SHT31;55632;51.962;16.116;2022-12-07T04:35:41;3.13;92.76
68648;SHT31;55632;51.962;16.116;2022-12-07T04:40:41;3.17;92.81
68648;SHT31;55632;51.962;16.116;2022-12-07T04:45:48;3.19;92.83
68648;SHT31;55632;51.962;16.116;2022-12-07T04:50:49;3.22;92.90
68648;SHT31;55632;51.962;16.116;2022-12-07T04:55:52;3.23;92.89
68648;SHT31;55632;51.962;16.116;2022-12-07T05:00:55;3.23;92.88
68648;SHT31;55632;51.962;16.116;2022-12-07T05:05:56;3.24;92.80
68648;SHT31;55632;51.962;16.116;2022-12-07T05:10:57;3.22;92.65
68648;SHT31;55632;51.962;16.116;2022-12-07T05:15:57;3.20;92.44
68648;SHT31;55632;51.962;16.116;2022-12-07T05:20:58;3.13;92.22
68648;SHT31;55632;51.962;16.116;2022-12-07T05:25:59;3.06;92.03
68648;SHT31;55632;51.962;16.116;2022-12-07T05:30:59;3.00;92.02
68648;SHT31;55632;51.962;16.116;2022-12-07T05:36:00;2.98;91.97
68648;SHT31;55632;51.962;16.116;2022-12-07T05:41:05;2.91;91.79
68648;SHT31;55632;51.962;16.116;2022-12-07T05:46:06;2.89;91.65
68648;SHT31;55632;51.962;16.116;2022-12-07T05:51:07;2.87;91.63
68648;SHT31;55632;51.962;16.116;2022-12-07T05:56:07;2.81;91.45
68648;SHT31;55632;51.962;16.116;2022-12-07T06:01:08;2.75;91.00
68648;SHT31;55632;51.962;16.116;2022-12-07T06:06:09;2.71;90.98
68648;SHT31;55632;51.962;16.116;2022-12-07T06:11:09;2.68;90.93
68648;SHT31;55632;51.962;16.116;2022-12-07T06:16:28;2.65;90.97
68648;SHT31;55632;51.962;16.116;2022-12-07T06:21:29;2.64;91.11
68648;SHT31;55632;51.962;16.116;2022-12-07T06:26:30;2.65;91.12
68648;SHT31;55632;51.962;16.116;2022-12-07T06:31:30;2.61;90.95
68648;SHT31;55632;51.962;16.116;2022-12-07T06:36:31;2.57;90.88
68648;SHT31;55632;51.962;16.116;2022-12-07T06:41:32;2.56;90.80
68648;SHT31;55632;51.962;16.116;2022-12-07T06:46:33;2.51;90.67
68648;SHT31;55632;51.962;16.116;2022-12-07T06:51:35;2.47;90.73
68648;SHT31;55632;51.962;16.116;2022-12-07T06:56:36;2.39;90.65
68648;SHT31;55632;51.962;16.116;2022-12-07T07:01:37;2.37;90.53
68648;SHT31;55632;51.962;16.116;2022-12-07T07:06:38;2.33;90.45
68648;SHT31;55632;51.962;16.116;2022-12-07T07:11:38;2.29;90.37
68648;SHT31;55632;51.962;16.116;2022-12-07T07:16:39;2.29;90.36
68648;SHT31;55632;51.962;16.116;2022-12-07T07:21:39;2.30;90.37
68648;SHT31;55632;51.962;16.116;2022-12-07T07:26:40;2.26;90.41
68648;SHT31;55632;51.962;16.116;2022-12-07T07:31:40;2.26;90.33
68648;SHT31;55632;51.962;16.116;2022-12-07T07:36:41;2.28;90.31
68648;SHT31;55632;51.962;16.116;2022-12-07T07:41:41;2.28;90.29
68648;SHT31;55632;51.962;16.116;2022-12-07T07:46:47;2.33;90.18
68648;SHT31;55632;51.962;16.116;2022-12-07T07:51:47;2.32;90.18
68648;SHT31;55632;51.962;16.116;2022-12-07T07:56:48;2.32;90.17
68648;SHT31;55632;51.962;16.116;2022-12-07T08:01:48;2.36;90.17
68648;SHT31;55632;51.962;16.116;2022-12-07T08:06:49;2.40;90.13
68648;SHT31;55632;51.962;16.116;2022-12-07T08:11:49;2.46;90.27
68648;SHT31;55632;51.962;16.116;2022-12-07T08:16:50;2.53;90.33
68648;SHT31;55632;51.962;16.116;2022-12-07T08:21:51;2.58;90.25
68648;SHT31;55632;51.962;16.116;2022-12-07T08:26:51;2.64;90.13
68648;SHT31;55632;51.962;16.116;2022-12-07T08:31:52;2.65;90.20
68648;SHT31;55632;51.962;16.116;2022-12-07T08:36:53;2.70;90.18
68648;SHT31;55632;51.962;16.116;2022-12-07T08:41:53;2.74;90.05
68648;SHT31;55632;51.962;16.116;2022-12-07T08:46:56;2.67;89.71
68648;SHT31;55632;51.962;16.116;2022-12-07T08:51:59;2.64;89.91
68648;SHT31;55632;51.962;16.116;2022-12-07T08:57:00;2.68;90.17
68648;SHT31;55632;51.962;16.116;2022-12-07T09:02:00;2.68;90.31
68648;SHT31;55632;51.962;16.116;2022-12-07T09:07:01;2.73;90.30
68648;SHT31;55632;51.962;16.116;2022-12-07T09:12:02;2.74;90.41
68648;SHT31;55632;51.962;16.116;2022-12-07T09:17:09;2.74;90.56
68648;SHT31;55632;51.962;16.116;2022-12-07T09:22:10;2.84;90.60
68648;SHT31;55632;51.962;16.116;2022-12-07T09:27:11;2.84;90.66
68648;SHT31;55632;51.962;16.116;2022-12-07T09:32:12;2.84;90.74
68648;SHT31;55632;51.962;16.116;2022-12-07T09:37:13;2.91;90.94
68648;SHT31;55632;51.962;16.116;2022-12-07T09:47:27;2.99;90.90
68648;SHT31;55632;51.962;16.116;2022-12-07T09:52:28;3.02;90.96
68648;SHT31;55632;51.962;16.116;2022-12-07T09:57:30;3.03;91.06
68648;SHT31;55632;51.962;16.116;2022-12-07T10:07:32;3.16;91.19
68648;SHT31;55632;51.962;16.116;2022-12-07T10:12:44;3.20;91.14
68648;SHT31;55632;51.962;16.116;2022-12-07T10:17:52;3.26;91.25
68648;SHT31;55632;51.962;16.116;2022-12-07T10:22:57;3.34;91.22
68648;SHT31;55632;51.962;16.116;2022-12-07T10:27:59;3.40;91.21
68648;SHT31;55632;51.962;16.116;2022-12-07T10:33:00;3.45;91.07
68648;SHT31;55632;51.962;16.116;2022-12-07T10:38:01;3.45;91.00
68648;SHT31;55632;51.962;16.116;2022-12-07T11:14:27;3.83;90.54
68648;SHT31;55632;51.962;16.116;2022-12-07T11:30:03;3.95;90.58
68648;SHT31;55632;51.962;16.116;2022-12-07T11:40:05;4.09;90.23
68648;SHT31;55632;51.962;16.116;2022-12-07T11:45:14;4.11;89.91
68648;SHT31;55632;51.962;16.116;2022-12-07T11:50:25;4.10;89.66
68648;SHT31;55632;51.962;16.116;2022-12-07T11:55:40;4.05;89.59
68648;SHT31;55632;51.962;16.116;2022-12-07T12:00:41;4.09;89.77
68648;SHT31;55632;51.962;16.116;2022-12-07T12:05:42;4.13;89.83
68648;SHT31;55632;51.962;16.116;2022-12-07T12:21:34;4.18;89.00
68648;SHT31;55632;51.962;16.116;2022-12-07T12:26:36;4.14;88.75
68648;SHT31;55632;51.962;16.116;2022-12-07T12:31:38;4.06;88.65
68648;SHT31;55632;51.962;16.116;2022-12-07T12:46:51;3.82;88.00
68648;SHT31;55632;51.962;16.116;2022-12-07T12:56:59;3.77;87.58
68648;SHT31;55632;51.962;16.116;2022-12-07T13:12:43;3.54;86.64
68648;SHT31;55632;51.962;16.116;2022-12-07T13:22:46;3.37;86.41
68648;SHT31;55632;51.962;16.116;2022-12-07T13:27:50;3.31;86.20
68648;SHT31;55632;51.962;16.116;2022-12-07T13:32:53;3.24;85.82
68648;SHT31;55632;51.962;16.116;2022-12-07T13:37:54;3.20;85.50
68648;SHT31;55632;51.962;16.116;2022-12-07T13:42:58;3.22;85.51
68648;SHT31;55632;51.962;16.116;2022-12-07T13:47:59;3.22;85.68
68648;SHT31;55632;51.962;16.116;2022-12-07T13:53:01;3.19;85.82
68648;SHT31;55632;51.962;16.116;2022-12-07T13:58:01;3.16;85.96
68648;SHT31;55632;51.962;16.116;2022-12-07T14:08:04;3.09;86.04
68648;SHT31;55632;51.962;16.116;2022-12-07T14:13:24;3.03;86.00
68648;SHT31;55632;51.962;16.116;2022-12-07T14:18:35;2.99;86.02
68648;SHT31;55632;51.962;16.116;2022-12-07T14:23:37;2.95;86.03
68648;SHT31;55632;51.962;16.116;2022-12-07T14:28:38;2.88;85.94
68648;SHT31;55632;51.962;16.116;2022-12-07T14:33:40;2.81;86.01
68648;SHT31;55632;51.962;16.116;2022-12-07T14:38:41;2.77;86.05
68648;SHT31;55632;51.962;16.116;2022-12-07T14:43:41;2.71;86.05
68648;SHT31;55632;51.962;16.116;2022-12-07T14:48:42;2.65;86.05
68648;SHT31;55632;51.962;16.116;2022-12-07T14:53:44;2.58;86.03
68648;SHT31;55632;51.962;16.116;2022-12-07T14:58:46;2.54;85.98
68648;SHT31;55632;51.962;16.116;2022-12-07T15:03:48;2.46;86.00
68648;SHT31;55632;51.962;16.116;2022-12-07T15:08:49;2.44;86.04
68648;SHT31;55632;51.962;16.116;2022-12-07T15:13:53;2.37;86.15
68648;SHT31;55632;51.962;16.116;2022-12-07T15:19:19;2.30;86.14
68648;SHT31;55632;51.962;16.116;2022-12-07T15:24:26;2.26;86.20
68648;SHT31;55632;51.962;16.116;2022-12-07T15:29:29;2.20;86.28
68648;SHT31;55632;51.962;16.116;2022-12-07T15:34:29;2.18;86.40
68648;SHT31;55632;51.962;16.116;2022-12-07T15:39:33;2.15;86.48
68648;SHT31;55632;51.962;16.116;2022-12-07T15:44:34;2.12;86.57
68648;SHT31;55632;51.962;16.116;2022-12-07T15:49:53;2.12;86.60
68648;SHT31;55632;51.962;16.116;2022-12-07T15:54:53;2.09;86.63
68648;SHT31;55632;51.962;16.116;2022-12-07T15:59:54;2.08;86.69
68648;SHT31;55632;51.962;16.116;2022-12-07T16:04:55;2.05;86.74
68648;SHT31;55632;51.962;16.116;2022-12-07T16:09:59;2.05;86.78
68648;SHT31;55632;51.962;16.116;2022-12-07T16:15:00;2.04;86.88
68648;SHT31;55632;51.962;16.116;2022-12-07T16:20:00;2.01;87.03
68648;SHT31;55632;51.962;16.116;2022-12-07T16:25:01;2.01;87.13
68648;SHT31;55632;51.962;16.116;2022-12-07T16:30:02;2.04;87.17
68648;SHT31;55632;51.962;16.116;2022-12-07T16:35:03;2.02;87.30
68648;SHT31;55632;51.962;16.116;2022-12-07T16:40:04;2.02;87.44
68648;SHT31;55632;51.962;16.116;2022-12-07T16:45:05;2.01;87.43
68648;SHT31;55632;51.962;16.116;2022-12-07T16:50:06;2.02;87.56
68648;SHT31;55632;51.962;16.116;2022-12-07T16:55:08;2.02;87.64
68648;SHT31;55632;51.962;16.116;2022-12-07T17:00:09;2.02;87.69
68648;SHT31;55632;51.962;16.116;2022-12-07T17:05:13;1.99;87.74
68648;SHT31;55632;51.962;16.116;2022-12-07T17:10:14;1.98;87.79
68648;SHT31;55632;51.962;16.116;2022-12-07T17:15:14;1.98;87.83
68648;SHT31;55632;51.962;16.116;2022-12-07T17:20:19;1.97;87.91
68648;SHT31;55632;51.962;16.116;2022-12-07T17:25:19;1.95;88.01
68648;SHT31;55632;51.962;16.116;2022-12-07T17:30:20;1.94;88.02
68648;SHT31;55632;51.962;16.116;2022-12-07T17:35:21;1.93;88.14
68648;SHT31;55632;51.962;16.116;2022-12-07T17:40:22;1.93;88.30
68648;SHT31;55632;51.962;16.116;2022-12-07T17:45:22;1.91;88.29
68648;SHT31;55632;51.962;16.116;2022-12-07T17:50:23;1.91;88.41
68648;SHT31;55632;51.962;16.116;2022-12-07T17:55:44;1.89;88.50
68648;SHT31;55632;51.962;16.116;2022-12-07T18:00:44;1.88;88.62
68648;SHT31;55632;51.962;16.116;2022-12-07T18:05:45;1.88;88.68
68648;SHT31;55632;51.962;16.116;2022-12-07T18:10:48;1.91;88.83
68648;SHT31;55632;51.962;16.116;2022-12-07T18:15:54;1.93;88.93
68648;SHT31;55632;51.962;16.116;2022-12-07T18:20:55;1.97;88.95
68648;SHT31;55632;51.962;16.116;2022-12-07T18:25:56;1.99;89.12
68648;SHT31;55632;51.962;16.116;2022-12-07T18:30:57;2.05;89.21
68648;SHT31;55632;51.962;16.116;2022-12-07T18:35:59;2.08;89.07
68648;SHT31;55632;51.962;16.116;2022-12-07T18:41:02;2.01;89.14
68648;SHT31;55632;51.962;16.116;2022-12-07T18:46:14;1.99;89.19
68648;SHT31;55632;51.962;16.116;2022-12-07T18:51:17;1.98;89.13
68648;SHT31;55632;51.962;16.116;2022-12-07T18:56:19;2.02;89.17
68648;SHT31;55632;51.962;16.116;2022-12-07T19:01:20;2.09;89.18
68648;SHT31;55632;51.962;16.116;2022-12-07T19:06:21;2.15;89.30
68648;SHT31;55632;51.962;16.116;2022-12-07T19:11:29;2.22;89.36
68648;SHT31;55632;51.962;16.116;2022-12-07T19:16:50;2.30;89.42
68648;SHT31;55632;51.962;16.116;2022-12-07T19:21:50;2.37;89.30
68648;SHT31;55632;51.962;16.116;2022-12-07T19:26:51;2.41;89.32
68648;SHT31;55632;51.962;16.116;2022-12-07T19:31:52;2.46;89.30
68648;SHT31;55632;51.962;16.116;2022-12-07T19:36:53;2.46;88.91
68648;SHT31;55632;51.962;16.116;2022-12-07T19:41:54;2.30;88.26
68648;SHT31;55632;51.962;16.116;2022-12-07T19:46:56;2.09;88.33
68648;SHT31;55632;51.962;16.116;2022-12-07T19:52:00;1.98;88.48
68648;SHT31;55632;51.962;16.116;2022-12-07T19:57:01;1.88;88.55
68648;SHT31;55632;51.962;16.116;2022-12-07T20:02:04;1.82;88.59
68648;SHT31;55632;51.962;16.116;2022-12-07T20:07:05;1.75;88.68
68648;SHT31;55632;51.962;16.116;2022-12-07T20:12:07;1.74;88.65
68648;SHT31;55632;51.962;16.116;2022-12-07T20:17:26;1.68;88.74
68648;SHT31;55632;51.962;16.116;2022-12-07T20:22:27;1.67;88.80
68648;SHT31;55632;51.962;16.116;2022-12-07T20:27:28;1.63;88.88
68648;SHT31;55632;51.962;16.116;2022-12-07T20:32:28;1.61;88.92
68648;SHT31;55632;51.962;16.116;2022-12-07T20:37:29;1.61;88.92
68648;SHT31;55632;51.962;16.116;2022-12-07T20:42:30;1.60;88.89
68648;SHT31;55632;51.962;16.116;2022-12-07T20:47:37;1.53;88.94
68648;SHT31;55632;51.962;16.116;2022-12-07T20:52:37;1.50;88.92
68648;SHT31;55632;51.962;16.116;2022-12-07T20:57:38;1.47;89.07
68648;SHT31;55632;51.962;16.116;2022-12-07T21:02:39;1.47;89.09
68648;SHT31;55632;51.962;16.116;2022-12-07T21:07:39;1.47;89.20
68648;SHT31;55632;51.962;16.116;2022-12-07T21:12:40;1.47;89.20
68648;SHT31;55632;51.962;16.116;2022-12-07T21:17:41;1.44;89.23
68648;SHT31;55632;51.962;16.116;2022-12-07T21:22:44;1.44;89.14
68648;SHT31;55632;51.962;16.116;2022-12-07T21:27:46;1.43;89.14
68648;SHT31;55632;51.962;16.116;2022-12-07T21:32:46;1.40;89.20
68648;SHT31;55632;51.962;16.116;2022-12-07T21:37:47;1.44;89.29
68648;SHT31;55632;51.962;16.116;2022-12-07T21:42:51;1.46;89.35
68648;SHT31;55632;51.962;16.116;2022-12-07T21:47:52;1.47;89.29
68648;SHT31;55632;51.962;16.116;2022-12-07T21:52:52;1.50;89.25
68648;SHT31;55632;51.962;16.116;2022-12-07T21:57:53;1.51;89.20
68648;SHT31;55632;51.962;16.116;2022-12-07T22:02:54;1.50;89.14
68648;SHT31;55632;51.962;16.116;2022-12-07T22:07:55;1.50;89.08
68648;SHT31;55632;51.962;16.116;2022-12-07T22:12:56;1.51;89.04
68648;SHT31;55632;51.962;16.116;2022-12-07T22:17:57;1.49;88.97
68648;SHT31;55632;51.962;16.116;2022-12-07T22:22:57;1.47;89.03
68648;SHT31;55632;51.962;16.116;2022-12-07T22:27:58;1.46;88.96
68648;SHT31;55632;51.962;16.116;2022-12-07T22:32:59;1.44;88.92
68648;SHT31;55632;51.962;16.116;2022-12-07T22:38:00;1.42;88.85
68648;SHT31;55632;51.962;16.116;2022-12-07T22:43:01;1.42;88.85
68648;SHT31;55632;51.962;16.116;2022-12-07T22:48:02;1.36;88.79
68648;SHT31;55632;51.962;16.116;2022-12-07T22:53:02;1.35;88.79
68648;SHT31;55632;51.962;16.116;2022-12-07T22:58:04;1.29;88.71
68648;SHT31;55632;51.962;16.116;2022-12-07T23:03:05;1.25;88.74
68648;SHT31;55632;51.962;16.116;2022-12-07T23:08:06;1.22;88.84
68648;SHT31;55632;51.962;16.116;2022-12-07T23:13:08;1.16;88.86
68648;SHT31;55632;51.962;16.116;2022-12-07T23:18:27;1.14;88.98
68648;SHT31;55632;51.962;16.116;2022-12-07T23:23:27;1.08;89.09
68648;SHT31;55632;51.962;16.116;2022-12-07T23:28:28;1.07;89.14
68648;SHT31;55632;51.962;16.116;2022-12-07T23:33:29;1.02;89.18
68648;SHT31;55632;51.962;16.116;2022-12-07T23:38:29;0.99;89.26
68648;SHT31;55632;51.962;16.116;2022-12-07T23:43:30;0.98;89.31
68648;SHT31;55632;51.962;16.116;2022-12-07T23:48:31;0.94;89.36
68648;SHT31;55632;51.962;16.116;2022-12-07T23:53:32;0.91;89.41
68648;SHT31;55632;51.962;16.116;2022-12-07T23:58:33;0.87;89.49
